createdAt,value
2017-06-22T12:29:11.695Z,98332
2017-06-22T12:29:26.432Z,98332
2017-06-22T12:29:43.054Z,98326
2017-06-22T12:29:56.803Z,98323
2017-06-22T12:30:11.596Z,98326
2017-06-22T12:30:31.122Z,98326
2017-06-22T12:30:47.602Z,98326
2017-06-22T12:31:07.052Z,98332
2017-06-22T12:31:23.787Z,98321
2017-06-22T12:31:40.584Z,98329
2017-06-22T12:31:54.583Z,98335
2017-06-22T12:32:08.622Z,98329
2017-06-22T12:32:25.380Z,98329
2017-06-22T12:32:45.049Z,98332
2017-06-22T12:33:01.917Z,98324
2017-06-22T12:33:15.603Z,98327
2017-06-22T12:33:32.345Z,98318
2017-06-22T12:33:46.271Z,98335
2017-06-22T12:34:00.197Z,98327
2017-06-22T12:34:17.382Z,98330
2017-06-22T12:34:31.550Z,98321
2017-06-22T12:34:45.549Z,98324
2017-06-22T12:35:05.240Z,98321
2017-06-22T12:35:25.812Z,98330
2017-06-22T12:35:43.794Z,98327
2017-06-22T12:36:00.565Z,98327
2017-06-22T12:36:12.709Z,98324
2017-06-22T12:36:35.398Z,98327
2017-06-22T12:36:49.590Z,98335
2017-06-22T12:37:03.806Z,98315
2017-06-22T12:37:20.758Z,98321
2017-06-22T12:37:31.803Z,98315
2017-06-22T12:37:51.485Z,98321
2017-06-22T12:38:05.278Z,98321
2017-06-22T12:38:22.040Z,98329
2017-06-22T12:38:41.718Z,98315
2017-06-22T12:38:55.701Z,98315
2017-06-22T12:39:15.318Z,98324
2017-06-22T12:39:29.202Z,98321
2017-06-22T12:39:40.192Z,98324
2017-06-22T12:39:51.143Z,98318
2017-06-22T12:40:05.147Z,98318
2017-06-22T12:40:21.963Z,98315
2017-06-22T12:40:35.899Z,98327
2017-06-22T12:40:46.981Z,98318
2017-06-22T12:41:03.854Z,98315
2017-06-22T12:41:18.203Z,98312
2017-06-22T12:41:35.757Z,98315
2017-06-22T12:41:52.661Z,98318
2017-06-22T12:42:07.293Z,98317
2017-06-22T12:42:26.946Z,98317
2017-06-22T12:42:40.964Z,98311
2017-06-22T12:42:54.989Z,98314
2017-06-22T12:43:08.996Z,98308
2017-06-22T12:43:28.964Z,98320
2017-06-22T12:43:42.991Z,98323
2017-06-22T12:43:54.079Z,98311
2017-06-22T12:44:05.150Z,98320
2017-06-22T12:44:19.055Z,98316
2017-06-22T12:44:32.848Z,98308
2017-06-22T12:44:46.528Z,98310
2017-06-22T12:45:03.000Z,98304
2017-06-22T12:45:19.477Z,98307
2017-06-22T12:45:33.362Z,98310
2017-06-22T12:45:46.902Z,98302
2017-06-22T12:46:04.601Z,98316
2017-06-22T12:46:24.023Z,98305
2017-06-22T12:46:34.962Z,98302
2017-06-22T12:46:51.299Z,98302
2017-06-22T12:47:07.958Z,98302
2017-06-22T12:47:24.566Z,98305
2017-06-22T12:47:39.270Z,98308
2017-06-22T12:47:50.169Z,98305
2017-06-22T12:48:03.889Z,98311
2017-06-22T12:48:20.552Z,98302
2017-06-22T12:48:31.406Z,98302
2017-06-22T12:48:47.800Z,98305
2017-06-22T12:49:01.578Z,98293
2017-06-22T12:49:15.341Z,98287
2017-06-22T12:49:29.394Z,98290
2017-06-22T12:49:43.159Z,98287
2017-06-22T12:49:53.987Z,98296
2017-06-22T12:50:04.994Z,98290
2017-06-22T12:50:18.758Z,98290
2017-06-22T12:50:32.593Z,98290
2017-06-22T12:50:46.343Z,98290
2017-06-22T12:51:05.879Z,98296
2017-06-22T12:51:19.669Z,98287
2017-06-22T12:51:39.197Z,98293
2017-06-22T12:51:55.746Z,98293
2017-06-22T12:52:06.634Z,98281
2017-06-22T12:52:20.464Z,98278
2017-06-22T12:52:40.049Z,98287
2017-06-22T12:52:59.433Z,98299
2017-06-22T12:53:13.293Z,98278
2017-06-22T12:53:30.029Z,98284
2017-06-22T12:53:43.688Z,98287
2017-06-22T12:53:57.474Z,98273
2017-06-22T12:54:08.193Z,98284
2017-06-22T12:54:19.178Z,98273
2017-06-22T12:54:33.024Z,98267
2017-06-22T12:54:43.932Z,98281
2017-06-22T12:54:57.674Z,98284
2017-06-22T12:55:11.510Z,98281
2017-06-22T12:55:25.305Z,98287
2017-06-22T12:55:39.043Z,98281
2017-06-22T12:55:52.916Z,98284
2017-06-22T12:56:09.630Z,98283
2017-06-22T12:56:32.087Z,98286
2017-06-22T12:56:48.633Z,98283
2017-06-22T12:57:02.439Z,98286
2017-06-22T12:57:16.601Z,98286
2017-06-22T12:57:27.619Z,98280
2017-06-22T12:57:41.436Z,98272
2017-06-22T12:57:55.271Z,98289
2017-06-22T12:58:14.828Z,98286
2017-06-22T12:58:31.525Z,98283
2017-06-22T12:58:45.331Z,98286
2017-06-22T12:58:56.305Z,98275
2017-06-22T12:59:10.147Z,98283
2017-06-22T12:59:24.162Z,98275
2017-06-22T12:59:37.978Z,98283
2017-06-22T12:59:51.832Z,98272
2017-06-22T13:00:14.204Z,98280
2017-06-22T13:00:27.982Z,98272
2017-06-22T13:00:47.565Z,98286
2017-06-22T13:01:05.157Z,98267
2017-06-22T13:01:18.822Z,98278
2017-06-22T13:01:32.419Z,98270
2017-06-22T13:01:49.146Z,98286
2017-06-22T13:02:08.813Z,98272
2017-06-22T13:02:25.573Z,98272
2017-06-22T13:02:39.371Z,98261
2017-06-22T13:02:50.237Z,98272
2017-06-22T13:03:06.871Z,98272
2017-06-22T13:03:17.681Z,98283
2017-06-22T13:03:37.332Z,98280
2017-06-22T13:03:51.058Z,98273
2017-06-22T13:04:01.987Z,98273
2017-06-22T13:04:18.637Z,98280
2017-06-22T13:04:29.257Z,98267
2017-06-22T13:04:45.772Z,98264
2017-06-22T13:04:59.565Z,98264
2017-06-22T13:05:19.182Z,98272
2017-06-22T13:05:32.932Z,98275
2017-06-22T13:05:46.758Z,98266
2017-06-22T13:06:03.464Z,98260
2017-06-22T13:06:20.251Z,98260
2017-06-22T13:06:36.962Z,98269
2017-06-22T13:06:50.626Z,98266
2017-06-22T13:07:04.643Z,98269
2017-06-22T13:07:21.162Z,98269
2017-06-22T13:07:35.035Z,98272
2017-06-22T13:07:51.552Z,98263
2017-06-22T13:08:05.378Z,98279
2017-06-22T13:08:19.201Z,98275
2017-06-22T13:08:33.059Z,98275
2017-06-22T13:08:44.109Z,98282
2017-06-22T13:09:00.843Z,98268
2017-06-22T13:09:17.597Z,98265
2017-06-22T13:09:31.414Z,98257
2017-06-22T13:09:45.248Z,98265
2017-06-22T13:10:04.789Z,98271
2017-06-22T13:10:24.511Z,98268
2017-06-22T13:10:38.234Z,98256
2017-06-22T13:10:52.027Z,98253
2017-06-22T13:11:06.823Z,98271
2017-06-22T13:11:20.897Z,98259
2017-06-22T13:11:38.879Z,98262
2017-06-22T13:11:55.932Z,98265
2017-06-22T13:12:16.190Z,98262
2017-06-22T13:12:32.944Z,98268
2017-06-22T13:12:43.910Z,98262
2017-06-22T13:12:57.868Z,98259
2017-06-22T13:13:17.484Z,98259
2017-06-22T13:13:31.410Z,98268
2017-06-22T13:13:47.944Z,98259
2017-06-22T13:14:05.526Z,98279
2017-06-22T13:14:22.227Z,98262
2017-06-22T13:14:36.062Z,98279
2017-06-22T13:14:47.013Z,98268
2017-06-22T13:15:00.791Z,98268
2017-06-22T13:15:14.674Z,98265
2017-06-22T13:15:28.595Z,98281
2017-06-22T13:15:48.182Z,98268
2017-06-22T13:16:05.093Z,98279
2017-06-22T13:16:19.133Z,98284
2017-06-22T13:16:35.986Z,98284
2017-06-22T13:16:52.720Z,98281
2017-06-22T13:17:06.576Z,98278
2017-06-22T13:17:20.382Z,98278
2017-06-22T13:17:35.412Z,98278
2017-06-22T13:17:46.753Z,98281
2017-06-22T13:18:03.426Z,98281
2017-06-22T13:18:14.532Z,98278
2017-06-22T13:18:29.556Z,98281
2017-06-22T13:18:44.375Z,98281
2017-06-22T13:18:55.455Z,98287
2017-06-22T13:19:09.389Z,98287
2017-06-22T13:19:20.397Z,98293
2017-06-22T13:19:34.208Z,98281
2017-06-22T13:19:53.775Z,98284
2017-06-22T13:20:14.646Z,98293
2017-06-22T13:20:31.471Z,98290
2017-06-22T13:20:45.633Z,98290
2017-06-22T13:21:02.195Z,98290
2017-06-22T13:21:16.036Z,98290
2017-06-22T13:21:29.998Z,98293
2017-06-22T13:21:41.023Z,98290
2017-06-22T13:21:54.781Z,98278
2017-06-22T13:22:05.743Z,98293
2017-06-22T13:22:25.332Z,98293
2017-06-22T13:22:39.191Z,98290
2017-06-22T13:22:49.901Z,98278
2017-06-22T13:23:03.778Z,98293
2017-06-22T13:23:17.659Z,98284
2017-06-22T13:23:40.095Z,98287
2017-06-22T13:23:53.775Z,98284
2017-06-22T13:24:07.606Z,98287
2017-06-22T13:24:18.593Z,98278
2017-06-22T13:24:32.397Z,98287
2017-06-22T13:24:46.523Z,98290
2017-06-22T13:24:57.504Z,98293
2017-06-22T13:25:11.375Z,98287
2017-06-22T13:25:22.411Z,98287
2017-06-22T13:25:39.163Z,98290
2017-06-22T13:25:56.891Z,98284
2017-06-22T13:26:10.991Z,98284
2017-06-22T13:26:27.782Z,98287
2017-06-22T13:26:48.390Z,98290
2017-06-22T13:27:02.110Z,98296
2017-06-22T13:27:13.532Z,98284
2017-06-22T13:27:27.538Z,98290
2017-06-22T13:27:41.357Z,98290
2017-06-22T13:27:58.170Z,98287
2017-06-22T13:28:17.884Z,98293
2017-06-22T13:28:35.185Z,98299
2017-06-22T13:28:54.779Z,98296
2017-06-22T13:29:14.832Z,98287
2017-06-22T13:29:28.541Z,98287
2017-06-22T13:29:42.326Z,98302
2017-06-22T13:29:56.668Z,98296
2017-06-22T13:30:10.482Z,98296
2017-06-22T13:30:26.967Z,98293
2017-06-22T13:30:46.339Z,98302
2017-06-22T13:31:03.040Z,98293
2017-06-22T13:31:19.770Z,98299
2017-06-22T13:31:36.464Z,98293
2017-06-22T13:31:53.165Z,98296
2017-06-22T13:32:06.958Z,98296
2017-06-22T13:32:29.448Z,98298
2017-06-22T13:32:49.023Z,98304
2017-06-22T13:33:02.941Z,98299
2017-06-22T13:33:16.773Z,98299
2017-06-22T13:33:33.560Z,98296
2017-06-22T13:33:50.424Z,98290
2017-06-22T13:34:10.103Z,98296
2017-06-22T13:34:26.845Z,98293
2017-06-22T13:34:43.683Z,98296
2017-06-22T13:35:00.503Z,98290
2017-06-22T13:35:20.325Z,98299
2017-06-22T13:35:39.963Z,98293
2017-06-22T13:35:51.221Z,98278
2017-06-22T13:36:07.998Z,98290
2017-06-22T13:36:24.969Z,98296
2017-06-22T13:36:39.253Z,98287
2017-06-22T13:36:53.174Z,98293
2017-06-22T13:37:07.148Z,98299
2017-06-22T13:37:23.796Z,98305
2017-06-22T13:37:37.576Z,98291
2017-06-22T13:37:52.414Z,98288
2017-06-22T13:38:03.356Z,98294
2017-06-22T13:38:22.926Z,98294
2017-06-22T13:38:36.763Z,98297
2017-06-22T13:38:50.527Z,98297
2017-06-22T13:39:01.382Z,98291
2017-06-22T13:39:15.157Z,98297
2017-06-22T13:39:28.927Z,98291
2017-06-22T13:39:48.493Z,98302
2017-06-22T13:40:02.193Z,98305
2017-06-22T13:40:21.799Z,98294
2017-06-22T13:40:35.575Z,98300
2017-06-22T13:40:49.341Z,98303
2017-06-22T13:41:03.176Z,98297
2017-06-22T13:41:22.757Z,98297
2017-06-22T13:41:33.741Z,98311
2017-06-22T13:41:47.569Z,98308
2017-06-22T13:41:58.412Z,98303
2017-06-22T13:42:12.169Z,98303
2017-06-22T13:42:26.059Z,98303
2017-06-22T13:42:42.735Z,98300
2017-06-22T13:42:56.831Z,98288
2017-06-22T13:43:08.395Z,98299
2017-06-22T13:43:22.218Z,98297
2017-06-22T13:43:33.189Z,98299
2017-06-22T13:43:50.027Z,98305
2017-06-22T13:44:00.773Z,98299
2017-06-22T13:44:14.682Z,98305
2017-06-22T13:44:28.561Z,98294
2017-06-22T13:44:45.291Z,98297
2017-06-22T13:44:56.211Z,98294
2017-06-22T13:45:12.859Z,98291
2017-06-22T13:45:26.517Z,98294
2017-06-22T13:45:40.145Z,98300
2017-06-22T13:45:56.789Z,98300
2017-06-22T13:46:13.437Z,98297
2017-06-22T13:46:30.120Z,98306
2017-06-22T13:46:47.838Z,98291
2017-06-22T13:47:04.551Z,98291
2017-06-22T13:47:21.271Z,98291
2017-06-22T13:47:38.008Z,98282
2017-06-22T13:47:54.779Z,98294
2017-06-22T13:48:09.705Z,98288
2017-06-22T13:48:20.536Z,98297
2017-06-22T13:48:35.011Z,98291
2017-06-22T13:49:14.884Z,98291
2017-06-22T13:49:31.613Z,98288
2017-06-22T13:49:45.418Z,98300
2017-06-22T13:49:59.393Z,98303
2017-06-22T13:50:13.193Z,98294
2017-06-22T13:50:26.973Z,98291
2017-06-22T13:50:43.549Z,98297
2017-06-22T13:50:58.533Z,98285
2017-06-22T13:51:19.164Z,98297
2017-06-22T13:51:33.106Z,98282
2017-06-22T13:51:44.088Z,98288
2017-06-22T13:51:54.785Z,98279
2017-06-22T13:52:11.493Z,98279
2017-06-22T13:52:28.149Z,98291
2017-06-22T13:52:41.788Z,98288
2017-06-22T13:52:56.027Z,98288
2017-06-22T13:53:09.824Z,98288
2017-06-22T13:53:21.029Z,98282
2017-06-22T13:53:34.785Z,98285
2017-06-22T13:53:51.482Z,98291
2017-06-22T13:54:02.352Z,98282
2017-06-22T13:54:16.005Z,98279
2017-06-22T13:54:35.595Z,98282
2017-06-22T13:54:49.344Z,98282
2017-06-22T13:55:03.041Z,98282
2017-06-22T13:55:22.527Z,98271
2017-06-22T13:55:36.323Z,98274
2017-06-22T13:55:50.056Z,98274
2017-06-22T13:56:01.027Z,98285
2017-06-22T13:56:14.881Z,98288
2017-06-22T13:56:31.492Z,98282
2017-06-22T13:56:51.044Z,98274
2017-06-22T13:57:04.702Z,98274
2017-06-22T13:57:16.073Z,98271
2017-06-22T13:57:26.955Z,98271
2017-06-22T13:57:43.559Z,98271
2017-06-22T13:57:54.476Z,98271
2017-06-22T13:58:08.825Z,98282
2017-06-22T13:58:19.630Z,98274
2017-06-22T13:58:30.466Z,98279
2017-06-22T13:58:45.198Z,98271
2017-06-22T13:58:58.895Z,98287
2017-06-22T13:59:09.644Z,98285
2017-06-22T13:59:23.480Z,98285
2017-06-22T13:59:34.254Z,98285
2017-06-22T13:59:45.192Z,98279
2017-06-22T14:00:11.393Z,98274
2017-06-22T14:00:28.079Z,98290
2017-06-22T14:00:38.980Z,98287
2017-06-22T14:00:52.783Z,98284
2017-06-22T14:01:06.444Z,98279
2017-06-22T14:01:23.063Z,98279
2017-06-22T14:01:34.020Z,98290
2017-06-22T14:01:50.714Z,98271
2017-06-22T14:02:10.276Z,98282
2017-06-22T14:02:23.961Z,98282
2017-06-22T14:02:40.742Z,98279
2017-06-22T14:02:58.295Z,98282
2017-06-22T14:03:12.121Z,98279
2017-06-22T14:03:23.104Z,98291
2017-06-22T14:03:39.653Z,98265
2017-06-22T14:03:53.495Z,98262
2017-06-22T14:04:04.398Z,98282
2017-06-22T14:04:15.430Z,98279
2017-06-22T14:04:26.324Z,98265
2017-06-22T14:04:43.006Z,98271
2017-06-22T14:04:56.803Z,98266
2017-06-22T14:05:10.544Z,98280
2017-06-22T14:05:24.290Z,98266
2017-06-22T14:05:38.130Z,98280
2017-06-22T14:05:49.046Z,98263
2017-06-22T14:06:02.817Z,98275
2017-06-22T14:06:13.794Z,98269
2017-06-22T14:06:24.612Z,98269
2017-06-22T14:06:35.397Z,98263
2017-06-22T14:06:46.914Z,98260
2017-06-22T14:07:00.596Z,98272
2017-06-22T14:07:17.159Z,98266
2017-06-22T14:07:31.016Z,98283
2017-06-22T14:07:44.790Z,98269
2017-06-22T14:07:58.563Z,98283
2017-06-22T14:08:09.428Z,98260
2017-06-22T14:08:20.386Z,98272
2017-06-22T14:08:34.123Z,98263
2017-06-22T14:08:53.695Z,98269
2017-06-22T14:09:04.661Z,98269
2017-06-22T14:09:18.298Z,98272
2017-06-22T14:09:32.084Z,98269
2017-06-22T14:09:48.593Z,98280
2017-06-22T14:10:02.496Z,98264
2017-06-22T14:10:13.440Z,98270
2017-06-22T14:10:24.231Z,98270
2017-06-22T14:10:41.818Z,98258
2017-06-22T14:10:55.582Z,98261
2017-06-22T14:11:10.264Z,98267
2017-06-22T14:11:21.198Z,98267
2017-06-22T14:11:35.028Z,98267
2017-06-22T14:11:51.705Z,98267
2017-06-22T14:12:08.416Z,98267
2017-06-22T14:12:22.129Z,98264
2017-06-22T14:12:38.769Z,98273
2017-06-22T14:12:52.536Z,98270
2017-06-22T14:13:03.488Z,98270
2017-06-22T14:13:17.310Z,98267
2017-06-22T14:13:28.790Z,98273
2017-06-22T14:13:42.655Z,98264
2017-06-22T14:14:00.292Z,98261
2017-06-22T14:14:11.059Z,98270
2017-06-22T14:14:27.751Z,98281
2017-06-22T14:14:44.463Z,98267
2017-06-22T14:14:55.415Z,98270
2017-06-22T14:15:10.355Z,98273
2017-06-22T14:15:24.167Z,98270
2017-06-22T14:15:40.851Z,98258
2017-06-22T14:15:51.751Z,98270
2017-06-22T14:16:02.542Z,98270
2017-06-22T14:16:24.793Z,98258
2017-06-22T14:16:35.701Z,98267
2017-06-22T14:16:47.199Z,98264
2017-06-22T14:16:57.985Z,98267
2017-06-22T14:17:15.070Z,98264
2017-06-22T14:17:26.146Z,98261
2017-06-22T14:17:47.487Z,98270
2017-06-22T14:17:58.403Z,98261
2017-06-22T14:18:12.334Z,98273
2017-06-22T14:18:26.146Z,98264
2017-06-22T14:18:37.057Z,98261
2017-06-22T14:18:50.862Z,98261
2017-06-22T14:19:03.392Z,98261
2017-06-22T14:19:17.085Z,98261
2017-06-22T14:19:30.912Z,98258
2017-06-22T14:19:41.802Z,98264
2017-06-22T14:19:55.553Z,98258
2017-06-22T14:20:09.352Z,98267
2017-06-22T14:20:20.380Z,98270
2017-06-22T14:20:31.293Z,98267
2017-06-22T14:20:45.029Z,98267
2017-06-22T14:21:04.556Z,98267
2017-06-22T14:21:15.185Z,98273
2017-06-22T14:21:31.812Z,98267
2017-06-22T14:21:45.471Z,98267
2017-06-22T14:22:05.015Z,98256
2017-06-22T14:22:18.815Z,98262
2017-06-22T14:22:32.505Z,98273
2017-06-22T14:22:46.771Z,98256
2017-06-22T14:23:03.463Z,98265
2017-06-22T14:23:17.256Z,98268
2017-06-22T14:23:30.799Z,98270
2017-06-22T14:23:44.561Z,98259
2017-06-22T14:23:58.286Z,98273
2017-06-22T14:24:09.103Z,98259
2017-06-22T14:24:22.961Z,98268
2017-06-22T14:24:36.684Z,98256
2017-06-22T14:24:47.484Z,98259
2017-06-22T14:25:01.213Z,98267
2017-06-22T14:25:14.885Z,98273
2017-06-22T14:25:28.567Z,98267
2017-06-22T14:25:50.990Z,98270
2017-06-22T14:26:04.655Z,98270
2017-06-22T14:26:21.285Z,98264
2017-06-22T14:26:35.118Z,98267
2017-06-22T14:26:45.985Z,98267
2017-06-22T14:26:59.829Z,98273
2017-06-22T14:27:13.661Z,98273
2017-06-22T14:27:30.381Z,98261
2017-06-22T14:27:41.160Z,98267
2017-06-22T14:28:04.141Z,98278
2017-06-22T14:28:14.910Z,98268
2017-06-22T14:28:34.484Z,98265
2017-06-22T14:28:48.152Z,98279
2017-06-22T14:28:59.529Z,98265
2017-06-22T14:29:10.171Z,98265
2017-06-22T14:29:21.120Z,98259
2017-06-22T14:29:34.864Z,98259
2017-06-22T14:29:51.489Z,98271
2017-06-22T14:30:05.170Z,98268
2017-06-22T14:30:16.151Z,98271
2017-06-22T14:30:35.712Z,98256
2017-06-22T14:30:49.387Z,98268
2017-06-22T14:31:03.219Z,98262
2017-06-22T14:31:16.990Z,98268
2017-06-22T14:31:33.642Z,98262
2017-06-22T14:31:44.593Z,98259
2017-06-22T14:31:58.229Z,98271
2017-06-22T14:32:14.904Z,98268
2017-06-22T14:32:28.700Z,98268
2017-06-22T14:32:39.473Z,98265
2017-06-22T14:32:53.288Z,98265
2017-06-22T14:33:11.347Z,98279
2017-06-22T14:33:25.661Z,98268
2017-06-22T14:33:42.387Z,98274
2017-06-22T14:33:56.154Z,98268
2017-06-22T14:34:16.496Z,98274
2017-06-22T14:34:33.276Z,98259
2017-06-22T14:34:44.254Z,98262
2017-06-22T14:34:57.947Z,98265
2017-06-22T14:35:11.746Z,98271
2017-06-22T14:35:22.577Z,98268
2017-06-22T14:35:36.359Z,98268
2017-06-22T14:35:50.539Z,98271
2017-06-22T14:36:04.212Z,98271
2017-06-22T14:36:24.700Z,98265
2017-06-22T14:36:36.693Z,98274
2017-06-22T14:36:47.274Z,98268
2017-06-22T14:37:03.985Z,98268
2017-06-22T14:37:20.620Z,98274
2017-06-22T14:37:34.670Z,98274
2017-06-22T14:37:45.365Z,98265
2017-06-22T14:37:56.286Z,98268
2017-06-22T14:38:10.525Z,98274
2017-06-22T14:38:26.943Z,98262
2017-06-22T14:38:37.594Z,98268
2017-06-22T14:38:51.997Z,98271
2017-06-22T14:39:11.536Z,98268
2017-06-22T14:39:23.419Z,98268
2017-06-22T14:39:44.712Z,98265
2017-06-22T14:40:01.441Z,98268
2017-06-22T14:40:22.114Z,98259
2017-06-22T14:40:36.842Z,98259
2017-06-22T14:40:50.690Z,98256
2017-06-22T14:41:10.140Z,98256
2017-06-22T14:41:26.857Z,98259
2017-06-22T14:41:40.521Z,98265
2017-06-22T14:41:58.159Z,98256
2017-06-22T14:42:14.732Z,98259
2017-06-22T14:42:30.138Z,98250
2017-06-22T14:42:49.646Z,98244
2017-06-22T14:43:03.358Z,98253
2017-06-22T14:43:20.048Z,98247
2017-06-22T14:43:34.034Z,98250
2017-06-22T14:43:54.004Z,98253
2017-06-22T14:44:13.662Z,98256
2017-06-22T14:44:27.755Z,98247
2017-06-22T14:44:45.759Z,98256
2017-06-22T14:45:02.240Z,98247
2017-06-22T14:45:16.865Z,98250
2017-06-22T14:45:33.472Z,98256
2017-06-22T14:45:44.338Z,98262
2017-06-22T14:46:04.917Z,98253
2017-06-22T14:46:18.768Z,98256
2017-06-22T14:46:38.433Z,98259
2017-06-22T14:46:58.108Z,98256
2017-06-22T14:47:14.876Z,98262
2017-06-22T14:47:31.381Z,98262
2017-06-22T14:47:45.236Z,98253
2017-06-22T14:48:01.973Z,98247
2017-06-22T14:48:21.466Z,98267
2017-06-22T14:48:42.188Z,98253
2017-06-22T14:49:01.879Z,98253
2017-06-22T14:49:18.501Z,98258
2017-06-22T14:49:34.975Z,98264
2017-06-22T14:49:54.376Z,98249
2017-06-22T14:50:16.779Z,98249
2017-06-22T14:50:31.943Z,98258
2017-06-22T14:50:51.697Z,98249
2017-06-22T14:51:11.496Z,98255
2017-06-22T14:51:34.118Z,98243
2017-06-22T14:51:47.966Z,98246
2017-06-22T14:52:05.306Z,98252
2017-06-22T14:52:19.169Z,98246
2017-06-22T14:52:36.300Z,98246
2017-06-22T14:52:50.189Z,98264
2017-06-22T14:53:06.874Z,98261
2017-06-22T14:53:26.510Z,98249
2017-06-22T14:53:43.282Z,98255
2017-06-22T14:53:57.006Z,98258
2017-06-22T14:54:10.884Z,98246
2017-06-22T14:54:33.608Z,98254
2017-06-22T14:54:47.447Z,98251
2017-06-22T14:55:07.053Z,98254
2017-06-22T14:55:23.834Z,98254
2017-06-22T14:55:43.546Z,98251
2017-06-22T14:55:57.168Z,98239
2017-06-22T14:56:18.201Z,98242
2017-06-22T14:56:31.843Z,98253
2017-06-22T14:56:45.852Z,98247
2017-06-22T14:57:08.277Z,98247
2017-06-22T14:57:27.868Z,98253
2017-06-22T14:57:47.517Z,98244
2017-06-22T14:57:58.366Z,98253
2017-06-22T14:58:15.317Z,98250
2017-06-22T14:58:29.094Z,98244
2017-06-22T14:58:48.696Z,98246
2017-06-22T14:59:02.421Z,98249
2017-06-22T14:59:25.401Z,98243
2017-06-22T14:59:39.094Z,98240
2017-06-22T14:59:52.998Z,98240
2017-06-22T15:00:03.885Z,98240
2017-06-22T15:00:17.694Z,98243
2017-06-22T15:00:34.357Z,98237
2017-06-22T15:00:53.935Z,98234
2017-06-22T15:01:07.606Z,98254
2017-06-22T15:01:27.182Z,98245
2017-06-22T15:01:40.963Z,98245
2017-06-22T15:01:54.756Z,98239
2017-06-22T15:02:14.311Z,98236
2017-06-22T15:02:34.231Z,98236
2017-06-22T15:02:48.025Z,98239
2017-06-22T15:03:04.872Z,98238
2017-06-22T15:03:24.432Z,98241
2017-06-22T15:03:38.595Z,98232
2017-06-22T15:03:53.424Z,98229
2017-06-22T15:04:07.285Z,98238
2017-06-22T15:04:33.172Z,98238
2017-06-22T15:04:46.913Z,98229
2017-06-22T15:05:06.457Z,98235
2017-06-22T15:05:31.757Z,98226
2017-06-22T15:05:48.490Z,98232
2017-06-22T15:06:05.238Z,98238
2017-06-22T15:06:24.830Z,98220
2017-06-22T15:06:45.286Z,98232
2017-06-22T15:07:01.972Z,98232
2017-06-22T15:07:15.702Z,98217
2017-06-22T15:07:35.703Z,98223
2017-06-22T15:07:46.726Z,98217
2017-06-22T15:08:01.116Z,98226
2017-06-22T15:08:21.751Z,98222
2017-06-22T15:08:36.577Z,98216
2017-06-22T15:08:50.415Z,98219
2017-06-22T15:09:03.839Z,98213
2017-06-22T15:09:21.415Z,98222
2017-06-22T15:09:39.585Z,98234
2017-06-22T15:09:50.582Z,98216
2017-06-22T15:10:05.463Z,98222
2017-06-22T15:10:19.616Z,98222
2017-06-22T15:10:33.599Z,98210
2017-06-22T15:10:50.377Z,98222
2017-06-22T15:11:12.869Z,98201
2017-06-22T15:11:30.249Z,98210
2017-06-22T15:11:46.985Z,98222
2017-06-22T15:12:01.730Z,98202
2017-06-22T15:12:13.265Z,98207
2017-06-22T15:12:26.999Z,98216
2017-06-22T15:12:40.641Z,98211
2017-06-22T15:12:57.354Z,98217
2017-06-22T15:13:14.007Z,98205
2017-06-22T15:13:24.679Z,98208
2017-06-22T15:13:38.374Z,98216
2017-06-22T15:13:55.082Z,98205
2017-06-22T15:14:09.730Z,98196
2017-06-22T15:14:23.444Z,98210
2017-06-22T15:14:40.124Z,98204
2017-06-22T15:14:54.935Z,98205
2017-06-22T15:15:15.340Z,98187
2017-06-22T15:15:32.096Z,98205
2017-06-22T15:15:49.189Z,98205
2017-06-22T15:16:08.659Z,98202
2017-06-22T15:16:19.437Z,98214
2017-06-22T15:16:33.489Z,98199
2017-06-22T15:16:50.173Z,98199
2017-06-22T15:17:03.859Z,98199
2017-06-22T15:17:20.488Z,98184
2017-06-22T15:17:37.042Z,98207
2017-06-22T15:17:51.688Z,98199
2017-06-22T15:18:05.354Z,98199
2017-06-22T15:18:19.154Z,98196
2017-06-22T15:18:32.751Z,98184
2017-06-22T15:18:46.588Z,98190
2017-06-22T15:18:57.511Z,98192
2017-06-22T15:19:19.918Z,98190
2017-06-22T15:19:39.478Z,98195
2017-06-22T15:19:53.274Z,98186
2017-06-22T15:20:07.511Z,98186
2017-06-22T15:20:24.114Z,98189
2017-06-22T15:20:34.662Z,98189
2017-06-22T15:20:45.622Z,98198
2017-06-22T15:20:56.510Z,98186
2017-06-22T15:21:13.116Z,98195
2017-06-22T15:21:27.034Z,98192
2017-06-22T15:21:47.585Z,98180
2017-06-22T15:22:01.440Z,98189
2017-06-22T15:22:12.211Z,98195
2017-06-22T15:22:26.074Z,98189
2017-06-22T15:22:39.862Z,98195
2017-06-22T15:22:59.503Z,98189
2017-06-22T15:23:16.334Z,98186
2017-06-22T15:23:36.009Z,98182
2017-06-22T15:23:49.906Z,98188
2017-06-22T15:24:06.738Z,98182
2017-06-22T15:24:17.704Z,98182
2017-06-22T15:24:28.673Z,98182
2017-06-22T15:24:46.247Z,98182
2017-06-22T15:25:02.919Z,98182
2017-06-22T15:25:13.854Z,98173
2017-06-22T15:25:27.786Z,98179
2017-06-22T15:25:47.069Z,98187
2017-06-22T15:26:00.757Z,98190
2017-06-22T15:26:14.418Z,98187
2017-06-22T15:26:32.175Z,98178
2017-06-22T15:26:45.949Z,98178
2017-06-22T15:27:05.558Z,98175
2017-06-22T15:27:19.125Z,98187
2017-06-22T15:27:30.209Z,98175
2017-06-22T15:27:43.879Z,98181
2017-06-22T15:27:57.621Z,98187
2017-06-22T15:28:11.381Z,98181
2017-06-22T15:28:27.976Z,98187
2017-06-22T15:28:38.778Z,98178
2017-06-22T15:28:52.491Z,98184
2017-06-22T15:29:09.041Z,98169
2017-06-22T15:29:23.426Z,98172
2017-06-22T15:29:34.418Z,98178
2017-06-22T15:29:48.222Z,98178
2017-06-22T15:30:02.017Z,98181
2017-06-22T15:30:21.486Z,98172
2017-06-22T15:30:35.318Z,98166
2017-06-22T15:30:52.430Z,98169
2017-06-22T15:31:09.013Z,98177
2017-06-22T15:31:25.682Z,98183
2017-06-22T15:31:40.427Z,98181
2017-06-22T15:31:59.984Z,98178
2017-06-22T15:32:11.008Z,98178
2017-06-22T15:32:24.866Z,98172
2017-06-22T15:32:38.577Z,98166
2017-06-22T15:32:55.162Z,98175
2017-06-22T15:33:06.133Z,98172
2017-06-22T15:33:16.879Z,98166
2017-06-22T15:33:33.397Z,98175
2017-06-22T15:33:44.339Z,98175
2017-06-22T15:34:01.043Z,98169
2017-06-22T15:34:20.537Z,98168
2017-06-22T15:34:37.224Z,98177
2017-06-22T15:34:51.070Z,98168
2017-06-22T15:35:07.769Z,98171
2017-06-22T15:35:21.390Z,98168
2017-06-22T15:35:39.090Z,98168
2017-06-22T15:35:55.735Z,98171
2017-06-22T15:36:12.388Z,98168
2017-06-22T15:36:26.152Z,98174
2017-06-22T15:36:39.707Z,98168
2017-06-22T15:36:56.346Z,98177
2017-06-22T15:37:12.957Z,98165
2017-06-22T15:37:26.695Z,98168
2017-06-22T15:37:40.424Z,98176
2017-06-22T15:37:54.302Z,98161
2017-06-22T15:38:05.047Z,98173
2017-06-22T15:38:18.894Z,98170
2017-06-22T15:38:29.917Z,98167
2017-06-22T15:38:43.751Z,98173
2017-06-22T15:39:05.275Z,98168
2017-06-22T15:39:21.962Z,98168
2017-06-22T15:39:36.308Z,98156
2017-06-22T15:39:46.980Z,98162
2017-06-22T15:40:06.556Z,98165
2017-06-22T15:40:20.269Z,98173
2017-06-22T15:40:39.737Z,98162
2017-06-22T15:40:59.318Z,98167
2017-06-22T15:41:12.917Z,98173
2017-06-22T15:41:26.753Z,98173
2017-06-22T15:41:40.603Z,98167
2017-06-22T15:41:51.479Z,98161
2017-06-22T15:42:02.486Z,98176
2017-06-22T15:42:22.102Z,98169
2017-06-22T15:42:38.580Z,98175
2017-06-22T15:42:52.709Z,98166
2017-06-22T15:43:03.882Z,98175
2017-06-22T15:43:29.297Z,98172
2017-06-22T15:43:40.367Z,98163